Time;durP1;ratioP1;P1;durP2;ratioP2;P2;SDS_P1;SDS_P2;PMS_P1;PMS_P2;Temp;Humidity;BMP_temperature;BMP_pressure;BME280_temperature;BME280_humidity;BME280_pressure;Samples;Min_cycle;Max_cycle;Signal;HPM_P1;HPM_P2
2022/06/28 00:02:12;;;;;;;6.50;4.20;;;;;;;13.20;95.87;101884.56;5115143;29;20028;-70
2022/06/28 00:04:46;;;;;;;5.27;4.30;;;;;;;13.14;96.05;101893.31;5114946;29;20768;-70
2022/06/28 00:07:18;;;;;;;8.30;4.80;;;;;;;13.12;96.23;101891.56;5113514;29;20054;-70
2022/06/28 00:09:51;;;;;;;6.93;4.23;;;;;;;13.04;96.14;101889.03;5115140;29;20065;-72
2022/06/28 00:12:22;;;;;;;7.18;4.75;;;;;;;12.96;96.95;101882.97;5114541;29;20842;-70
2022/06/28 00:17:49;;;;;;;6.28;4.20;;;;;;;12.95;96.95;101883.81;5114628;29;20039;-71
2022/06/28 00:20:21;;;;;;;7.18;4.50;;;;;;;12.92;97.20;101882.09;5114027;29;20054;-71
2022/06/28 00:22:52;;;;;;;6.57;4.50;;;;;;;12.87;97.31;101883.00;5113842;29;20036;-71
2022/06/28 00:25:24;;;;;;;8.23;4.77;;;;;;;12.71;97.64;101887.44;5114007;29;20346;-70
2022/06/28 00:27:56;;;;;;;5.53;4.57;;;;;;;12.64;97.91;101891.81;5113577;29;20362;-71
2022/06/28 00:30:27;;;;;;;7.43;4.70;;;;;;;12.67;98.30;101893.53;5113773;29;20055;-71
2022/06/28 00:32:59;;;;;;;8.80;5.27;;;;;;;12.57;98.30;101895.31;5114131;29;20079;-71
2022/06/28 00:35:30;;;;;;;6.37;4.43;;;;;;;12.51;98.88;101897.94;5114058;29;20496;-70
2022/06/28 00:38:01;;;;;;;5.93;4.07;;;;;;;12.44;98.82;101902.31;5113798;29;20707;-71
2022/06/28 00:40:38;;;;;;;7.07;4.73;;;;;;;12.53;99.17;101898.84;5112599;29;20191;-71
2022/06/28 00:43:10;;;;;;;8.48;5.38;;;;;;;12.45;99.46;101905.84;5113925;29;20036;-71
2022/06/28 00:45:43;;;;;;;8.50;4.63;;;;;;;12.45;99.70;101903.22;5113955;29;20549;-70
2022/06/28 00:48:15;;;;;;;10.63;4.60;;;;;;;12.43;99.19;101907.56;5113520;29;20123;-71
2022/06/28 00:50:47;;;;;;;;;;;;;;;12.47;98.25;101906.69;5114359;29;20087;-70
2022/06/28 00:53:19;;;;;;;8.38;4.38;;;;;;;12.50;98.58;101907.53;5113662;29;20021;-71
2022/06/28 00:55:52;;;;;;;8.90;4.88;;;;;;;12.58;98.81;101904.91;5113317;29;20095;-70
2022/06/28 00:58:24;;;;;;;5.28;4.78;;;;;;;12.52;98.45;101911.00;5113544;29;20087;-72
2022/06/28 01:00:56;;;;;;;;;;;;;;;12.51;97.58;101903.16;5113886;29;20411;-70
2022/06/28 01:03:29;;;;;;;5.35;4.70;;;;;;;12.33;97.94;101902.38;5113342;29;19934;-71
2022/06/28 01:06:01;;;;;;;7.00;4.80;;;;;;;12.42;98.25;101898.00;5113810;29;20504;-70
2022/06/28 01:08:33;;;;;;;7.60;5.30;;;;;;;12.25;98.32;101898.00;5112344;29;20039;-71
2022/06/28 01:11:19;;;;;;;5.73;4.43;;;;;;;12.26;98.61;101899.78;5113217;29;20031;-70
2022/06/28 01:13:54;;;;;;;9.43;4.60;;;;;;;12.22;98.52;101905.00;5113102;29;20159;-69
2022/06/28 01:16:26;;;;;;;7.50;4.90;;;;;;;12.30;98.59;101902.38;5111666;29;20558;-72
2022/06/28 01:19:00;;;;;;;;;;;;;;;12.25;97.69;101904.09;5113888;29;20758;-70
2022/06/28 01:21:34;;;;;;;7.35;4.47;;;;;;;12.21;98.13;101905.00;5113042;29;20316;-71
2022/06/28 01:27:00;;;;;;;10.23;5.13;;;;;;;12.15;98.49;101915.47;5195363;23;20212;-71
2022/06/28 01:29:32;;;;;;;7.93;5.43;;;;;;;12.12;98.47;101910.22;5106412;29;20553;-70
2022/06/28 01:32:04;;;;;;;8.97;5.47;;;;;;;12.11;98.30;101916.34;5092737;29;20047;-72
2022/06/28 01:34:35;;;;;;;7.80;5.03;;;;;;;12.11;98.48;101914.59;5080540;29;20172;-71
2022/06/28 01:37:07;;;;;;;6.70;4.77;;;;;;;12.09;98.33;101915.47;5072144;29;20025;-72
2022/06/28 01:39:39;;;;;;;9.75;5.63;;;;;;;12.01;98.61;101923.28;5072355;29;20189;-71
2022/06/28 01:42:10;;;;;;;7.53;5.20;;;;;;;11.97;98.73;101921.56;5087264;29;20037;-71
2022/06/28 01:44:44;;;;;;;9.53;6.03;;;;;;;11.94;98.60;101922.44;5072943;29;20085;-71
2022/06/28 01:47:18;;;;;;;8.70;5.13;;;;;;;11.94;99.02;101919.81;5073457;29;20374;-72
2022/06/28 01:49:49;;;;;;;6.05;5.30;;;;;;;11.94;98.95;101927.66;5073328;29;20573;-71
2022/06/28 01:52:21;;;;;;;10.03;5.30;;;;;;;11.82;99.07;101932.88;5072609;29;20112;-71
2022/06/28 01:54:54;;;;;;;10.27;5.35;;;;;;;11.80;99.34;101924.13;5073023;29;20485;-75
2022/06/28 01:57:25;;;;;;;;;;;;;;;11.80;98.36;101929.38;5073582;29;20033;-70
2022/06/28 01:59:56;;;;;;;13.23;5.32;;;;;;;11.79;98.85;101927.66;5072620;29;19939;-73
2022/06/28 02:02:28;;;;;;;7.60;5.43;;;;;;;11.65;98.85;101927.63;5072925;29;20045;-72
2022/06/28 02:04:59;;;;;;;7.83;5.70;;;;;;;11.64;99.14;101928.47;5073345;29;20041;-71
2022/06/28 02:07:30;;;;;;;12.10;5.60;;;;;;;11.58;99.28;101931.97;5073285;29;20025;-71
2022/06/28 02:10:02;;;;;;;9.37;5.37;;;;;;;11.61;99.88;101913.69;5072436;29;20037;-72
2022/06/28 02:12:33;;;;;;;8.90;5.83;;;;;;;11.55;99.81;101925.88;5072911;29;20033;-71
2022/06/28 02:15:06;;;;;;;10.43;5.57;;;;;;;11.58;99.74;101934.59;5073123;29;20064;-71
2022/06/28 02:17:38;;;;;;;10.95;5.15;;;;;;;11.54;99.57;101927.59;5071655;29;20421;-70
2022/06/28 02:20:11;;;;;;;7.93;5.23;;;;;;;11.55;99.63;101938.94;5072842;29;20029;-71
2022/06/28 02:22:43;;;;;;;11.82;5.95;;;;;;;11.42;99.90;101938.03;5072479;29;20077;-71
2022/06/28 02:25:14;;;;;;;9.20;5.57;;;;;;;11.42;100.00;101938.91;5072466;29;20032;-72
2022/06/28 02:27:47;;;;;;;7.20;5.47;;;;;;;11.39;100.00;101945.88;5072687;29;20033;-71
2022/06/28 02:30:21;;;;;;;10.35;5.60;;;;;;;11.39;100.00;101946.72;5072895;29;20029;-72
2022/06/28 02:32:52;;;;;;;8.30;5.18;;;;;;;11.27;100.00;101952.78;5071213;29;20817;-72
2022/06/28 02:41:03;;;;;;;8.25;5.47;;;;;;;11.23;100.00;101958.84;5072767;29;20029;-72
2022/06/28 02:43:35;;;;;;;7.43;4.97;;;;;;;11.21;100.00;101960.59;5072531;29;20037;-72
2022/06/28 02:46:06;;;;;;;8.63;4.90;;;;;;;11.27;100.00;101967.56;5073168;29;20056;-72
2022/06/28 02:48:38;;;;;;;10.90;5.10;;;;;;;11.16;100.00;101970.16;5086894;29;20030;-72
2022/06/28 02:51:10;;;;;;;11.87;4.93;;;;;;;11.17;100.00;101974.50;5073818;29;20061;-72
2022/06/28 02:53:42;;;;;;;7.90;4.90;;;;;;;11.13;100.00;101972.75;5076137;29;20293;-72
2022/06/28 02:56:16;;;;;;;7.63;4.70;;;;;;;11.11;100.00;101977.09;5076016;29;20037;-72
2022/06/28 02:58:47;;;;;;;9.48;4.75;;;;;;;11.03;100.00;101984.00;5076426;29;20292;-72
2022/06/28 03:01:19;;;;;;;11.57;5.00;;;;;;;11.07;100.00;101988.38;5076591;29;20021;-71
2022/06/28 03:03:56;;;;;;;9.87;4.73;;;;;;;11.07;100.00;101988.38;5076040;29;20063;-70
2022/06/28 03:06:30;;;;;;;9.63;5.65;;;;;;;10.92;100.00;101991.78;5074761;29;20084;-73
2022/06/28 03:09:02;;;;;;;8.35;4.82;;;;;;;10.95;100.00;101991.81;5075847;29;20467;-71
2022/06/28 03:11:33;;;;;;;6.10;4.20;;;;;;;10.88;100.00;101993.53;5075851;29;20040;-72
2022/06/28 03:14:05;;;;;;;9.70;4.83;;;;;;;10.80;100.00;101996.94;5075966;29;20518;-71
2022/06/28 03:16:36;;;;;;;9.47;5.00;;;;;;;10.84;100.00;101998.72;5076190;29;20040;-72
2022/06/28 03:19:07;;;;;;;7.27;4.63;;;;;;;10.91;100.00;102001.34;5076062;29;20037;-71
2022/06/28 03:21:39;;;;;;;7.23;5.23;;;;;;;10.76;100.00;102003.88;5075522;29;20057;-71
2022/06/28 03:24:10;;;;;;;8.23;4.40;;;;;;;10.80;100.00;102002.16;5075975;29;20132;-71
2022/06/28 03:26:41;;;;;;;9.40;4.57;;;;;;;10.66;100.00;102002.94;5075576;29;20052;-71
2022/06/28 03:29:13;;;;;;;12.53;5.17;;;;;;;10.80;100.00;102004.75;5075559;29;20041;-72
2022/06/28 03:31:44;;;;;;;6.87;4.87;;;;;;;10.68;100.00;102008.19;5075001;29;20181;-70
2022/06/28 03:34:16;;;;;;;5.77;4.57;;;;;;;10.71;100.00;102013.41;5074254;29;20029;-72
2022/06/28 03:36:48;;;;;;;10.88;4.82;;;;;;;10.61;100.00;102008.97;5075248;29;20566;-71
2022/06/28 03:39:19;;;;;;;6.63;4.20;;;;;;;10.65;100.00;102011.63;5075233;29;20037;-71
2022/06/28 03:41:51;;;;;;;8.40;4.87;;;;;;;10.61;100.00;102016.81;5075297;29;20079;-70
2022/06/28 03:44:23;;;;;;;7.97;4.90;;;;;;;10.69;100.00;102018.63;5075307;29;20942;-70
2022/06/28 03:46:54;;;;;;;11.67;5.10;;;;;;;10.62;100.00;102024.63;5075181;29;20036;-71
2022/06/28 03:49:25;;;;;;;6.23;4.90;;;;;;;10.58;100.00;102028.97;5075310;29;20607;-72
2022/06/28 03:51:58;;;;;;;8.40;4.27;;;;;;;10.69;100.00;102025.53;5075480;29;20033;-71
2022/06/28 03:54:29;;;;;;;;;;;;;;;10.61;100.00;102024.63;5075571;29;20025;-70
2022/06/28 03:57:01;;;;;;;7.88;4.60;;;;;;;10.65;100.00;102023.78;5075116;29;19938;-72
2022/06/28 03:59:33;;;;;;;8.95;4.68;;;;;;;10.55;100.00;102025.47;5074773;29;20037;-72
2022/06/28 04:02:04;;;;;;;9.53;5.57;;;;;;;10.58;100.00;102013.31;5074705;29;20113;-71
2022/06/28 04:04:36;;;;;;;9.50;4.97;;;;;;;10.63;100.00;102025.53;5075035;29;20100;-71
2022/06/28 04:07:07;;;;;;;10.37;4.20;;;;;;;10.60;100.00;102023.75;5075482;29;20036;-71
2022/06/28 04:09:38;;;;;;;8.27;4.53;;;;;;;10.65;100.00;102024.66;5075049;29;20036;-70
2022/06/28 04:12:10;;;;;;;11.80;4.27;;;;;;;10.65;100.00;102029.00;5075340;29;20174;-72
2022/06/28 04:14:41;;;;;;;8.00;4.57;;;;;;;10.67;100.00;102022.06;5073477;29;20120;-72
2022/06/28 04:17:13;;;;;;;8.63;4.27;;;;;;;10.66;100.00;102025.53;5074543;29;20124;-72
2022/06/28 04:19:44;;;;;;;10.57;4.33;;;;;;;10.71;100.00;102016.03;5088843;29;20341;-71
2022/06/28 04:22:16;;;;;;;8.87;4.33;;;;;;;10.79;100.00;102024.75;5074993;29;20122;-71
2022/06/28 04:24:47;;;;;;;10.57;4.50;;;;;;;10.86;100.00;102023.06;5088862;29;20064;-72
2022/06/28 04:27:19;;;;;;;8.57;4.20;;;;;;;10.88;100.00;102030.03;5074912;29;20091;-70
2022/06/28 04:29:50;;;;;;;10.73;3.97;;;;;;;10.92;99.74;102028.31;5089047;29;20107;-72
2022/06/28 04:32:22;;;;;;;11.17;4.23;;;;;;;10.93;99.59;102028.31;5075386;29;20139;-70
2022/06/28 04:34:53;;;;;;;11.93;4.30;;;;;;;10.98;99.34;102030.97;5076867;29;20335;-74
2022/06/28 04:37:25;;;;;;;7.70;3.70;;;;;;;11.01;99.28;102023.16;5076751;29;20797;-70
2022/06/28 04:40:05;;;;;;;7.73;3.83;;;;;;;11.03;98.87;102029.25;5076778;29;20395;-72
2022/06/28 04:42:38;;;;;;;11.35;4.20;;;;;;;11.07;98.19;102022.31;5075482;29;20029;-72
2022/06/28 04:45:10;;;;;;;11.38;4.40;;;;;;;11.09;98.22;102018.84;5090532;29;20035;-73
2022/06/28 04:47:42;;;;;;;12.90;4.30;;;;;;;11.11;98.40;102024.94;5076629;29;20037;-72
2022/06/28 04:50:13;;;;;;;7.37;3.87;;;;;;;11.17;98.05;102025.81;5090431;29;20041;-70
2022/06/28 04:52:44;;;;;;;9.33;4.37;;;;;;;11.22;97.85;102026.72;5077320;29;20347;-71
2022/06/28 04:55:17;;;;;;;10.47;3.90;;;;;;;11.30;97.63;102025.00;5076933;29;20037;-71
2022/06/28 04:57:48;;;;;;;9.73;3.75;;;;;;;11.36;97.22;102024.16;5077607;29;20028;-72
2022/06/28 05:00:20;;;;;;;8.83;3.90;;;;;;;11.42;96.74;102024.19;5077829;29;20041;-73
2022/06/28 05:02:51;;;;;;;11.40;3.97;;;;;;;11.50;96.44;102030.31;5077489;29;20482;-70
2022/06/28 05:05:23;;;;;;;11.77;3.93;;;;;;;11.59;96.34;102035.56;5077980;29;20025;-71
2022/06/28 05:07:54;;;;;;;10.47;4.00;;;;;;;11.69;95.63;102031.25;5082062;29;20040;-73
2022/06/28 05:10:26;;;;;;;12.27;4.00;;;;;;;11.77;95.54;102033.84;5107747;29;20061;-71
2022/06/28 05:12:57;;;;;;;12.17;4.00;;;;;;;11.82;95.09;102040.00;5095156;29;20024;-72
2022/06/28 05:15:28;;;;;;;10.83;3.90;;;;;;;11.90;94.55;102039.97;5097216;29;20009;-72
2022/06/28 05:18:00;;;;;;;8.60;4.13;;;;;;;12.01;94.22;102039.19;5097261;29;20052;-71
2022/06/28 05:20:31;;;;;;;10.43;3.37;;;;;;;12.09;93.41;102035.69;5089285;29;20063;-72
2022/06/28 05:23:02;;;;;;;11.57;3.60;;;;;;;12.15;93.30;102035.69;5096816;29;20052;-72
2022/06/28 05:25:34;;;;;;;10.53;3.60;;;;;;;12.22;92.32;102040.06;5097204;29;20096;-72
2022/06/28 05:28:05;;;;;;;13.33;4.47;;;;;;;12.27;92.22;102035.72;5088853;29;20050;-70
2022/06/28 05:30:36;;;;;;;10.03;4.00;;;;;;;12.35;92.63;102033.09;5096964;29;20067;-71
2022/06/28 05:33:08;;;;;;;11.07;3.50;;;;;;;12.42;92.48;102031.34;5098104;29;20280;-72
2022/06/28 05:35:40;;;;;;;10.50;3.42;;;;;;;12.49;92.32;102033.94;5096878;29;20037;-71
2022/06/28 05:38:11;;;;;;;10.27;3.23;;;;;;;12.58;91.22;102031.31;5097604;29;20048;-71
2022/06/28 05:40:43;;;;;;;10.57;3.77;;;;;;;12.67;90.71;102029.56;5096636;29;20109;-70
2022/06/28 05:43:14;;;;;;;17.80;4.03;;;;;;;12.74;90.64;102011.25;5097498;29;20072;-71
2022/06/28 05:45:45;;;;;;;16.27;4.00;;;;;;;12.85;90.67;102028.69;5095451;29;20118;-70
2022/06/28 05:48:17;;;;;;;12.30;4.57;;;;;;;12.89;89.80;102020.78;5079095;29;20029;-71
2022/06/28 05:50:48;;;;;;;9.87;3.07;;;;;;;12.95;89.55;102017.31;5079585;29;20115;-69
2022/06/28 05:53:19;;;;;;;8.73;2.80;;;;;;;13.03;89.28;102010.28;5079829;29;20100;-70
2022/06/28 05:55:51;;;;;;;10.83;2.90;;;;;;;13.11;89.06;102016.38;5077876;29;20045;-70
2022/06/28 05:58:22;;;;;;;11.10;4.23;;;;;;;13.20;88.73;102010.25;5078927;29;20489;-71
2022/06/28 06:00:54;;;;;;;11.10;3.37;;;;;;;13.27;88.00;102009.34;5078561;29;20033;-73
2022/06/28 06:03:25;;;;;;;9.70;3.30;;;;;;;13.36;87.66;102015.44;5077230;29;20048;-71
2022/06/28 06:09:45;;;;;;;15.70;3.53;;;;;;;13.54;86.48;102019.72;5338687;27;20116;-72
2022/06/28 06:12:17;;;;;;;10.97;4.10;;;;;;;13.58;85.16;102021.44;5336821;27;20522;-73
2022/06/28 06:14:49;;;;;;;17.30;4.88;;;;;;;13.63;85.02;102025.75;5337867;27;20447;-70
2022/06/28 06:17:20;;;;;;;10.80;3.40;;;;;;;13.72;85.54;102022.25;5337829;27;20073;-72
2022/06/28 06:19:52;;;;;;;11.30;4.13;;;;;;;13.75;84.07;102027.47;5337397;27;20443;-72
2022/06/28 06:22:23;;;;;;;11.13;4.00;;;;;;;13.82;83.03;102025.66;5337859;27;20032;-73
2022/06/28 06:24:54;;;;;;;16.53;4.23;;;;;;;13.87;82.53;102026.50;5337475;27;20193;-72
2022/06/28 06:27:26;;;;;;;11.33;3.93;;;;;;;13.94;82.83;102025.59;5336731;27;20149;-71
2022/06/28 06:29:57;;;;;;;14.90;3.93;;;;;;;13.97;82.12;102033.41;5337589;27;20084;-70
2022/06/28 06:32:28;;;;;;;13.40;4.93;;;;;;;14.01;81.47;102029.91;5337004;27;20110;-72
2022/06/28 06:35:00;;;;;;;17.50;4.67;;;;;;;14.11;80.66;102032.47;5337374;27;20050;-72
2022/06/28 06:37:31;;;;;;;16.23;3.90;;;;;;;14.21;80.30;102040.22;5334868;28;20027;-71
2022/06/28 06:40:03;;;;;;;9.43;2.90;;;;;;;14.31;80.83;102038.44;5336774;27;20027;-73
2022/06/28 06:42:34;;;;;;;7.50;2.90;;;;;;;14.43;80.19;102052.31;5336176;27;20042;-73
2022/06/28 06:45:07;;;;;;;11.00;3.27;;;;;;;14.44;78.23;102046.16;5334870;28;20062;-72
2022/06/28 06:47:39;;;;;;;13.32;3.70;;;;;;;14.50;76.73;102048.75;5336268;27;20023;-72
2022/06/28 06:50:10;;;;;;;11.53;3.63;;;;;;;14.54;77.36;102046.09;5335923;27;20118;-71
2022/06/28 06:52:42;;;;;;;13.17;3.90;;;;;;;14.55;76.94;102049.56;5335863;27;20050;-72
2022/06/28 06:55:13;;;;;;;13.93;3.10;;;;;;;14.65;77.76;102048.66;5335623;27;20083;-71
2022/06/28 06:57:45;;;;;;;11.00;2.83;;;;;;;14.80;76.27;102058.13;5335040;27;20035;-72
2022/06/28 07:00:17;;;;;;;11.67;3.80;;;;;;;14.90;74.43;102051.88;5335634;27;20046;-72
2022/06/28 07:02:48;;;;;;;15.07;4.00;;;;;;;14.90;73.17;102051.88;5335423;27;20378;-72
2022/06/28 07:05:19;;;;;;;14.90;3.83;;;;;;;14.93;72.53;102054.47;5335326;27;20078;-73
2022/06/28 07:07:51;;;;;;;10.07;2.77;;;;;;;15.09;73.41;102059.56;5336109;27;20047;-72
2022/06/28 07:10:23;;;;;;;12.93;4.13;;;;;;;15.15;73.42;102056.88;5334186;27;20047;-71
2022/06/28 07:12:54;;;;;;;9.57;3.75;;;;;;;15.23;71.89;102062.03;5336134;27;20039;-73
2022/06/28 07:15:25;;;;;;;11.57;3.60;;;;;;;15.19;66.95;102058.56;5335639;27;20122;-72
2022/06/28 07:17:57;;;;;;;11.80;3.63;;;;;;;15.27;68.70;102051.47;5335221;27;20138;-73
2022/06/28 07:20:29;;;;;;;10.77;2.87;;;;;;;15.39;66.77;102058.34;5324677;27;20478;-73
2022/06/28 07:23:01;;;;;;;8.87;2.67;;;;;;;15.46;66.26;102048.63;5321170;28;20428;-73
2022/06/28 07:25:32;;;;;;;;;;;;;;;15.59;69.03;102047.56;5321756;28;20382;-73
2022/06/28 07:28:04;;;;;;;9.27;3.07;;;;;;;15.70;70.86;102050.03;5320733;28;19915;-73
2022/06/28 07:30:35;;;;;;;11.83;3.13;;;;;;;15.76;67.94;102049.06;5320354;28;20771;-73
2022/06/28 07:33:07;;;;;;;10.13;3.37;;;;;;;15.94;69.02;102047.97;5320649;28;20455;-73
2022/06/28 07:35:39;;;;;;;11.50;3.50;;;;;;;15.97;66.05;102051.44;5320707;28;20028;-73
2022/06/28 07:38:11;;;;;;;;;;;;;;;16.13;67.90;102045.94;5321448;27;20468;-73
2022/06/28 07:40:42;;;;;;;13.77;3.80;;;;;;;16.15;64.97;102052.06;5319949;28;19949;-72
2022/06/28 07:43:16;;;;;;;12.43;2.77;;;;;;;16.24;64.26;102054.50;5320433;28;20482;-73
2022/06/28 07:45:47;;;;;;;12.18;3.00;;;;;;;16.25;65.26;102048.38;5319793;28;20039;-72
2022/06/28 07:48:19;;;;;;;8.23;3.20;;;;;;;16.29;64.70;102051.81;5319855;28;20535;-72
2022/06/28 07:53:41;;;;;;;7.30;2.42;;;;;;;16.53;62.61;102053.16;5320524;28;20035;-72
2022/06/28 07:56:12;;;;;;;6.47;2.90;;;;;;;16.61;61.42;102050.41;5320229;28;20367;-73
2022/06/28 07:58:43;;;;;;;5.70;2.50;;;;;;;16.58;61.44;102048.69;5319989;28;20055;-73
2022/06/28 08:01:16;;;;;;;10.13;3.07;;;;;;;16.73;63.59;102050.19;5320139;28;20975;-73
2022/06/28 08:03:48;;;;;;;9.20;3.17;;;;;;;16.89;62.11;102045.53;5319496;28;20037;-73
2022/06/28 08:06:19;;;;;;;9.67;2.90;;;;;;;17.07;62.31;102039.91;5319854;28;20032;-72
2022/06/28 08:08:51;;;;;;;11.17;3.07;;;;;;;17.13;61.47;102046.84;5319846;28;20059;-72
2022/06/28 08:11:22;;;;;;;6.70;2.77;;;;;;;17.04;60.66;102045.22;5320251;27;20027;-73
2022/06/28 08:13:54;;;;;;;8.33;2.67;;;;;;;17.23;61.93;102039.59;5318670;28;20039;-74
2022/06/28 08:16:26;;;;;;;11.80;3.17;;;;;;;17.20;58.66;102043.16;5319203;28;20096;-72
2022/06/28 08:18:57;;;;;;;9.00;2.30;;;;;;;17.28;57.89;102040.38;5317723;28;20040;-72
2022/06/28 08:21:28;;;;;;;6.57;2.17;;;;;;;17.43;58.49;102037.38;5318735;28;20135;-72
2022/06/28 08:24:00;;;;;;;10.30;2.87;;;;;;;17.45;57.54;102032.97;5319170;27;20023;-72
2022/06/28 08:26:31;;;;;;;5.17;1.83;;;;;;;17.59;57.68;102021.25;5318701;28;20038;-71
2022/06/28 08:29:04;;;;;;;7.30;2.97;;;;;;;17.73;56.96;102021.81;5318473;28;20534;-73
2022/06/28 08:31:35;;;;;;;6.55;1.48;;;;;;;17.72;49.46;102024.47;5317978;28;20020;-72
2022/06/28 08:34:07;;;;;;;3.77;1.87;;;;;;;17.80;49.90;102014.63;5319380;28;20425;-71
2022/06/28 08:36:40;;;;;;;5.70;2.17;;;;;;;17.92;51.74;102019.66;5317315;28;20078;-72
2022/06/28 08:39:11;;;;;;;8.45;2.40;;;;;;;18.12;53.81;102016.50;5319182;28;20024;-73
2022/06/28 08:41:44;;;;;;;6.77;2.07;;;;;;;18.23;51.86;102017.09;5318847;28;20050;-73
2022/06/28 08:44:17;;;;;;;;;;;;;;;18.38;51.31;102023.75;5319320;28;20146;-72
2022/06/28 08:46:51;;;;;;;5.65;1.85;;;;;;;18.18;49.04;102010.22;5318234;28;19959;-72
2022/06/28 08:49:50;;;;;;;5.18;1.77;;;;;;;18.25;49.43;102017.06;5316756;28;20023;-73
2022/06/28 08:52:22;;;;;;;7.80;1.88;;;;;;;18.35;52.12;102007.13;5318322;28;20028;-71
2022/06/28 08:54:54;;;;;;;4.13;1.83;;;;;;;18.54;51.05;102002.25;5318150;28;20029;-73
2022/06/28 08:57:25;;;;;;;4.43;1.70;;;;;;;18.69;52.37;102001.84;5314553;28;20097;-72
2022/06/28 08:59:57;;;;;;;5.50;1.77;;;;;;;18.65;50.86;102008.09;5315253;28;20035;-73
2022/06/28 09:02:28;;;;;;;8.93;1.80;;;;;;;18.78;51.05;102012.13;5317809;28;20285;-72
2022/06/28 09:05:01;;;;;;;5.27;1.80;;;;;;;18.76;50.55;102013.09;5318058;28;20028;-73
2022/06/28 09:07:32;;;;;;;5.85;1.50;;;;;;;18.85;51.06;102002.31;5318213;28;20184;-73
2022/06/28 09:10:04;;;;;;;4.87;2.27;;;;;;;18.94;49.61;102007.31;5317656;28;20087;-73
2022/06/28 09:12:35;;;;;;;6.07;1.97;;;;;;;18.88;50.18;101996.06;5317545;28;20596;-72
2022/06/28 09:15:08;;;;;;;4.93;1.87;;;;;;;19.04;49.51;102004.44;5318003;28;20490;-73
2022/06/28 09:17:39;;;;;;;8.50;2.75;;;;;;;19.11;49.55;101991.00;5316552;28;20035;-73
2022/06/28 09:20:11;;;;;;;4.43;1.90;;;;;;;19.15;48.81;101989.13;5317877;28;20024;-73
2022/06/28 09:22:44;;;;;;;11.00;2.23;;;;;;;19.24;49.00;101982.69;5317774;28;20061;-72
2022/06/28 09:25:29;;;;;;;4.57;1.92;;;;;;;19.34;49.37;101989.44;5318117;28;20041;-71
2022/06/28 09:28:02;;;;;;;7.38;2.33;;;;;;;19.11;48.39;101984.81;5317850;28;20039;-72
2022/06/28 09:30:34;;;;;;;4.18;1.63;;;;;;;18.95;49.12;101979.16;5317981;28;20520;-72
2022/06/28 09:33:05;;;;;;;5.30;1.93;;;;;;;19.17;50.18;101974.06;5317675;28;20035;-72
2022/06/28 09:35:36;;;;;;;4.43;1.60;;;;;;;19.52;50.56;101961.56;5317578;28;20058;-73
2022/06/28 09:38:08;;;;;;;5.03;2.43;;;;;;;19.39;49.39;101976.09;5317309;28;20055;-72
2022/06/28 09:40:39;;;;;;;3.70;1.40;;;;;;;19.67;51.90;101970.78;5316392;28;20031;-72
2022/06/28 09:43:14;;;;;;;4.20;1.83;;;;;;;19.65;48.62;101968.19;5317491;28;20300;-72
2022/06/28 09:45:51;;;;;;;5.95;1.88;;;;;;;19.59;48.15;101965.72;5317454;28;20454;-72
2022/06/28 09:48:22;;;;;;;4.30;2.00;;;;;;;19.81;49.61;101965.09;5317672;28;20039;-72
2022/06/28 09:50:57;;;;;;;6.17;1.50;;;;;;;19.83;48.96;101963.25;5317297;28;20054;-73
2022/06/28 09:53:30;;;;;;;6.35;1.90;;;;;;;20.21;51.40;101950.50;5317523;28;20094;-74
2022/06/28 09:56:05;;;;;;;2.30;1.60;;;;;;;20.09;48.68;101956.22;5317496;28;20386;-74
2022/06/28 09:58:38;;;;;;;4.90;2.08;;;;;;;20.47;48.95;101946.94;5317748;28;20023;-73
2022/06/28 10:01:09;;;;;;;;;;;;;;;20.44;47.08;101952.34;5316298;28;20179;-73
2022/06/28 10:03:42;;;;;;;6.13;1.90;;;;;;;20.36;47.71;101944.66;5317430;28;20018;-72
2022/06/28 10:06:14;;;;;;;4.70;1.60;;;;;;;20.32;47.05;101947.50;5317094;28;20111;-73
2022/06/28 10:08:46;;;;;;;12.10;2.03;;;;;;;20.71;50.49;101950.50;5317118;28;20051;-73
2022/06/28 10:11:18;;;;;;;6.35;1.98;;;;;;;21.35;46.58;101951.63;5316680;28;20265;-73
2022/06/28 10:16:48;;;;;;;8.45;2.17;;;;;;;24.45;39.43;101940.13;5316398;28;19920;-73
2022/06/28 10:19:21;;;;;;;6.00;2.15;;;;;;;25.45;36.60;101948.03;5316890;28;20024;-73
2022/06/28 10:21:52;;;;;;;4.93;1.70;;;;;;;26.41;34.71;101952.25;5317427;28;20394;-72
2022/06/28 10:24:54;;;;;;;5.40;2.10;;;;;;;27.68;35.64;101948.63;5316945;28;20028;-73
2022/06/28 10:27:28;;;;;;;4.75;2.38;;;;;;;27.77;32.91;101936.41;5317145;28;20055;-73
2022/06/28 10:30:09;;;;;;;4.80;1.77;;;;;;;27.84;31.30;101927.03;5317638;28;20028;-73
2022/06/28 10:32:47;;;;;;;4.25;1.50;;;;;;;28.00;31.92;101935.75;5316205;28;20445;-74
2022/06/28 10:35:31;;;;;;;4.47;1.67;;;;;;;29.03;31.79;101924.06;5316446;28;20036;-74
2022/06/28 10:38:08;;;;;;;4.57;1.77;;;;;;;28.60;31.48;101916.47;5320292;28;20120;-74
2022/06/28 10:40:47;;;;;;;5.65;1.90;;;;;;;27.73;30.60;101913.50;5322453;28;20039;-75
2022/06/28 10:43:27;;;;;;;5.68;2.10;;;;;;;27.47;32.13;101910.75;5321797;28;20037;-76
2022/06/28 10:46:10;;;;;;;5.30;2.15;;;;;;;28.43;32.43;101905.06;5320538;28;20034;-76
2022/06/28 10:48:47;;;;;;;4.18;1.63;;;;;;;30.30;30.29;101905.53;5316825;28;20371;-77
2022/06/28 10:51:21;;;;;;;4.40;1.60;;;;;;;30.11;28.32;101902.59;5315150;28;20027;-78
2022/06/28 10:54:01;;;;;;;3.33;1.55;;;;;;;29.52;28.35;101900.81;5317480;28;20032;-79
2022/06/28 10:56:38;;;;;;;4.38;1.45;;;;;;;29.79;30.07;101890.66;5317845;28;20485;-76
2022/06/28 10:59:12;;;;;;;3.75;1.50;;;;;;;30.29;28.26;101898.44;5321302;28;20036;-76
2022/06/28 11:02:08;;;;;;;6.40;2.00;;;;;;;30.33;29.55;101893.66;5322072;27;20120;-76
2022/06/28 11:04:39;;;;;;;6.55;1.70;;;;;;;30.65;28.05;101896.47;5237980;28;20470;-75
2022/06/28 11:07:19;;;;;;;4.53;1.83;;;;;;;30.98;27.58;101891.19;5254966;28;20041;-76
2022/06/28 11:09:53;;;;;;;4.97;1.85;;;;;;;30.95;26.65;101896.81;5254613;28;20482;-75
2022/06/28 11:12:38;;;;;;;4.35;1.48;;;;;;;31.14;26.08;101880.88;5254287;28;20060;-75
2022/06/28 11:15:28;;;;;;;3.13;1.77;;;;;;;33.18;26.18;101876.69;5254200;28;20037;-75
2022/06/28 11:17:59;;;;;;;5.47;1.98;;;;;;;32.66;25.22;101868.78;5254630;28;20029;-75
2022/06/28 11:20:32;;;;;;;4.78;1.70;;;;;;;31.68;24.81;101870.97;5255284;28;20024;-77
2022/06/28 11:23:05;;;;;;;5.78;1.50;;;;;;;31.88;24.89;101874.66;5254717;28;20448;-76
2022/06/28 11:28:59;;;;;;;4.13;1.85;;;;;;;31.78;25.58;101860.25;5214967;28;20041;-78
2022/06/28 11:31:42;;;;;;;3.75;1.70;;;;;;;31.24;26.28;101859.41;5197834;28;20547;-74
2022/06/28 11:34:21;;;;;;;4.07;1.70;;;;;;;30.72;26.90;101848.41;5213898;28;20046;-75
2022/06/28 11:36:57;;;;;;;5.75;2.22;;;;;;;30.47;27.10;101855.78;5213456;28;20049;-76
2022/06/28 11:39:29;;;;;;;3.40;1.60;;;;;;;32.07;25.03;101843.38;5209179;28;20046;-75
2022/06/28 11:42:01;;;;;;;4.25;1.88;;;;;;;33.54;22.99;101850.78;5231947;28;20446;-74
2022/06/28 11:44:34;;;;;;;4.63;1.92;;;;;;;33.49;25.57;101850.38;5254060;28;20128;-78
2022/06/28 11:47:07;;;;;;;5.18;2.13;;;;;;;34.61;22.60;101849.56;5252840;28;20029;-77
2022/06/28 11:49:39;;;;;;;5.15;1.80;;;;;;;35.97;20.97;101852.13;5254052;28;20120;-76
2022/06/28 11:52:16;;;;;;;3.70;2.15;;;;;;;34.07;22.49;101852.09;5247740;28;20065;-75
2022/06/28 11:54:57;;;;;;;3.78;2.00;;;;;;;31.03;25.28;101841.38;5232116;28;20033;-76
2022/06/28 11:57:29;;;;;;;5.57;1.70;;;;;;;30.42;26.37;101839.16;5217292;28;20064;-76
2022/06/28 12:00:03;;;;;;;3.22;1.55;;;;;;;32.25;24.27;101847.19;5299584;28;20059;-78
2022/06/28 12:02:37;;;;;;;2.28;1.60;;;;;;;33.25;24.34;101837.31;5317280;28;20032;-77
2022/06/28 12:05:09;;;;;;;4.20;1.50;;;;;;;31.81;24.74;101839.28;5319546;28;20515;-75
2022/06/28 12:07:43;;;;;;;5.45;1.77;;;;;;;29.83;28.49;101834.84;5320426;28;20048;-75
2022/06/28 12:10:28;;;;;;;5.28;1.80;;;;;;;30.03;28.08;101838.66;5319551;28;20085;-74
2022/06/28 12:13:10;;;;;;;2.80;1.52;;;;;;;30.15;26.72;101839.50;5319463;28;20130;-76
2022/06/28 12:15:41;;;;;;;5.18;1.77;;;;;;;31.44;24.69;101836.16;5301459;28;20379;-76